sensor_id;sensor_type;location;lat;lon;timestamp;pressure;altitude;pressure_sealevel;temperature
21336;BMP180;69435;52.670;13.544;2023-05-27T00:01:50;102140.00;;;14.30
21336;BMP180;69435;52.670;13.544;2023-05-27T00:04:36;102140.00;;;14.30
21336;BMP180;69435;52.670;13.544;2023-05-27T00:07:22;102184.00;;;14.20
21336;BMP180;69435;52.670;13.544;2023-05-27T00:10:09;102149.00;;;14.20
21336;BMP180;69435;52.670;13.544;2023-05-27T00:12:57;102198.00;;;14.20
21336;BMP180;69435;52.670;13.544;2023-05-27T00:15:43;102151.00;;;14.10
21336;BMP180;69435;52.670;13.544;2023-05-27T00:18:29;102156.00;;;14.00
21336;BMP180;69435;52.670;13.544;2023-05-27T00:21:18;102152.00;;;14.00
21336;BMP180;69435;52.670;13.544;2023-05-27T00:24:04;102174.00;;;14.00
21336;BMP180;69435;52.670;13.544;2023-05-27T00:26:50;102173.00;;;13.90
21336;BMP180;69435;52.670;13.544;2023-05-27T00:29:37;102188.00;;;13.90
21336;BMP180;69435;52.670;13.544;2023-05-27T00:32:23;102177.00;;;13.90
21336;BMP180;69435;52.670;13.544;2023-05-27T00:35:09;102184.00;;;13.80
21336;BMP180;69435;52.670;13.544;2023-05-27T00:37:56;102112.00;;;13.80
21336;BMP180;69435;52.670;13.544;2023-05-27T00:40:43;102165.00;;;13.70
21336;BMP180;69435;52.670;13.544;2023-05-27T00:43:29;102128.00;;;13.70
21336;BMP180;69435;52.670;13.544;2023-05-27T00:46:19;102163.00;;;13.70
21336;BMP180;69435;52.670;13.544;2023-05-27T00:49:05;102150.00;;;13.60
21336;BMP180;69435;52.670;13.544;2023-05-27T00:51:52;102177.00;;;13.60
21336;BMP180;69435;52.670;13.544;2023-05-27T00:54:38;102140.00;;;13.60
21336;BMP180;69435;52.670;13.544;2023-05-27T00:57:25;102169.00;;;13.50
21336;BMP180;69435;52.670;13.544;2023-05-27T01:00:12;102181.00;;;13.50
21336;BMP180;69435;52.670;13.544;2023-05-27T01:02:59;102132.00;;;13.40
21336;BMP180;69435;52.670;13.544;2023-05-27T01:05:45;102122.00;;;13.40
21336;BMP180;69435;52.670;13.544;2023-05-27T01:12:14;102141.00;;;13.40
21336;BMP180;69435;52.670;13.544;2023-05-27T01:15:03;102174.00;;;13.30
21336;BMP180;69435;52.670;13.544;2023-05-27T01:17:55;102180.00;;;13.30
21336;BMP180;69435;52.670;13.544;2023-05-27T01:20:47;102168.00;;;13.20
21336;BMP180;69435;52.670;13.544;2023-05-27T01:23:34;102182.00;;;13.10
21336;BMP180;69435;52.670;13.544;2023-05-27T01:26:20;102160.00;;;13.10
21336;BMP180;69435;52.670;13.544;2023-05-27T01:29:06;102097.00;;;13.10
21336;BMP180;69435;52.670;13.544;2023-05-27T01:32:16;102166.00;;;13.10
21336;BMP180;69435;52.670;13.544;2023-05-27T01:35:30;102171.00;;;13.10
21336;BMP180;69435;52.670;13.544;2023-05-27T01:38:20;102161.00;;;13.00
21336;BMP180;69435;52.670;13.544;2023-05-27T01:41:09;102119.00;;;13.00
21336;BMP180;69435;52.670;13.544;2023-05-27T01:43:55;102148.00;;;12.90
21336;BMP180;69435;52.670;13.544;2023-05-27T01:46:41;102131.00;;;12.90
21336;BMP180;69435;52.670;13.544;2023-05-27T01:49:29;102169.00;;;12.90
21336;BMP180;69435;52.670;13.544;2023-05-27T01:52:15;102167.00;;;12.80
21336;BMP180;69435;52.670;13.544;2023-05-27T01:55:01;102154.00;;;12.70
21336;BMP180;69435;52.670;13.544;2023-05-27T01:57:48;102115.00;;;12.80
21336;BMP180;69435;52.670;13.544;2023-05-27T02:00:36;102121.00;;;12.80
21336;BMP180;69435;52.670;13.544;2023-05-27T02:03:24;102152.00;;;12.70
21336;BMP180;69435;52.670;13.544;2023-05-27T02:06:10;102154.00;;;12.70
21336;BMP180;69435;52.670;13.544;2023-05-27T02:08:57;102108.00;;;12.70
21336;BMP180;69435;52.670;13.544;2023-05-27T02:11:46;102163.00;;;12.60
21336;BMP180;69435;52.670;13.544;2023-05-27T02:14:31;102116.00;;;12.60
21336;BMP180;69435;52.670;13.544;2023-05-27T02:17:18;102156.00;;;12.50
21336;BMP180;69435;52.670;13.544;2023-05-27T02:20:05;102110.00;;;12.50
21336;BMP180;69435;52.670;13.544;2023-05-27T02:22:51;102132.00;;;12.50
21336;BMP180;69435;52.670;13.544;2023-05-27T02:25:37;102125.00;;;12.40
21336;BMP180;69435;52.670;13.544;2023-05-27T02:28:25;102127.00;;;12.40
21336;BMP180;69435;52.670;13.544;2023-05-27T02:31:11;102153.00;;;12.40
21336;BMP180;69435;52.670;13.544;2023-05-27T02:33:57;102141.00;;;12.40
21336;BMP180;69435;52.670;13.544;2023-05-27T02:36:44;102109.00;;;12.30
21336;BMP180;69435;52.670;13.544;2023-05-27T02:39:30;102153.00;;;12.30
21336;BMP180;69435;52.670;13.544;2023-05-27T02:42:18;102142.00;;;12.30
21336;BMP180;69435;52.670;13.544;2023-05-27T02:45:04;102147.00;;;12.30
21336;BMP180;69435;52.670;13.544;2023-05-27T02:47:50;102110.00;;;12.20
21336;BMP180;69435;52.670;13.544;2023-05-27T02:50:36;102096.00;;;12.20
21336;BMP180;69435;52.670;13.544;2023-05-27T02:53:22;102109.00;;;12.20
21336;BMP180;69435;52.670;13.544;2023-05-27T02:56:11;102165.00;;;12.20
21336;BMP180;69435;52.670;13.544;2023-05-27T02:58:57;102140.00;;;12.10
21336;BMP180;69435;52.670;13.544;2023-05-27T03:01:46;102139.00;;;12.20
21336;BMP180;69435;52.670;13.544;2023-05-27T03:04:32;102126.00;;;12.10
21336;BMP180;69435;52.670;13.544;2023-05-27T03:07:19;102108.00;;;12.10
21336;BMP180;69435;52.670;13.544;2023-05-27T03:10:05;102156.00;;;12.00
21336;BMP180;69435;52.670;13.544;2023-05-27T03:12:54;102179.00;;;12.10
21336;BMP180;69435;52.670;13.544;2023-05-27T03:15:43;102173.00;;;12.10
21336;BMP180;69435;52.670;13.544;2023-05-27T03:18:28;102159.00;;;12.00
21336;BMP180;69435;52.670;13.544;2023-05-27T03:21:14;102113.00;;;12.00
21336;BMP180;69435;52.670;13.544;2023-05-27T03:24:02;102104.00;;;12.00
21336;BMP180;69435;52.670;13.544;2023-05-27T03:26:48;102133.00;;;12.00
21336;BMP180;69435;52.670;13.544;2023-05-27T03:29:34;102162.00;;;12.00
21336;BMP180;69435;52.670;13.544;2023-05-27T03:32:20;102129.00;;;12.00
21336;BMP180;69435;52.670;13.544;2023-05-27T03:35:07;102116.00;;;12.00
21336;BMP180;69435;52.670;13.544;2023-05-27T03:37:53;102125.00;;;12.00
21336;BMP180;69435;52.670;13.544;2023-05-27T03:40:40;102120.00;;;12.00
21336;BMP180;69435;52.670;13.544;2023-05-27T03:43:28;102163.00;;;12.00
21336;BMP180;69435;52.670;13.544;2023-05-27T03:46:15;102130.00;;;12.00
21336;BMP180;69435;52.670;13.544;2023-05-27T03:49:01;102162.00;;;12.00
21336;BMP180;69435;52.670;13.544;2023-05-27T03:51:49;102144.00;;;12.00
21336;BMP180;69435;52.670;13.544;2023-05-27T03:54:35;102141.00;;;12.00
21336;BMP180;69435;52.670;13.544;2023-05-27T03:57:21;102118.00;;;12.00
21336;BMP180;69435;52.670;13.544;2023-05-27T04:00:08;102143.00;;;12.10
21336;BMP180;69435;52.670;13.544;2023-05-27T04:02:56;102162.00;;;12.10
21336;BMP180;69435;52.670;13.544;2023-05-27T04:05:42;102159.00;;;12.20
21336;BMP180;69435;52.670;13.544;2023-05-27T04:08:28;102119.00;;;12.20
21336;BMP180;69435;52.670;13.544;2023-05-27T04:11:15;102177.00;;;12.20
21336;BMP180;69435;52.670;13.544;2023-05-27T04:14:01;102184.00;;;12.30
21336;BMP180;69435;52.670;13.544;2023-05-27T04:16:47;102138.00;;;12.40
21336;BMP180;69435;52.670;13.544;2023-05-27T04:19:33;102139.00;;;12.50
21336;BMP180;69435;52.670;13.544;2023-05-27T04:22:19;102140.00;;;12.60
21336;BMP180;69435;52.670;13.544;2023-05-27T04:25:06;102183.00;;;12.70
21336;BMP180;69435;52.670;13.544;2023-05-27T04:27:52;102172.00;;;12.70
21336;BMP180;69435;52.670;13.544;2023-05-27T04:30:38;102170.00;;;12.80
21336;BMP180;69435;52.670;13.544;2023-05-27T04:33:26;102180.00;;;12.90
21336;BMP180;69435;52.670;13.544;2023-05-27T04:36:12;102152.00;;;13.10
21336;BMP180;69435;52.670;13.544;2023-05-27T04:39:01;102185.00;;;13.20
21336;BMP180;69435;52.670;13.544;2023-05-27T04:41:47;102144.00;;;13.30
21336;BMP180;69435;52.670;13.544;2023-05-27T04:44:33;102167.00;;;13.40
21336;BMP180;69435;52.670;13.544;2023-05-27T04:47:20;102143.00;;;13.50
21336;BMP180;69435;52.670;13.544;2023-05-27T04:50:08;102173.00;;;13.60
21336;BMP180;69435;52.670;13.544;2023-05-27T04:52:56;102165.00;;;13.80
21336;BMP180;69435;52.670;13.544;2023-05-27T04:55:43;102145.00;;;13.90
21336;BMP180;69435;52.670;13.544;2023-05-27T04:58:29;102132.00;;;14.10
21336;BMP180;69435;52.670;13.544;2023-05-27T05:01:17;102163.00;;;14.20
21336;BMP180;69435;52.670;13.544;2023-05-27T05:04:03;102155.00;;;14.40
21336;BMP180;69435;52.670;13.544;2023-05-27T05:06:58;102142.00;;;14.50
21336;BMP180;69435;52.670;13.544;2023-05-27T05:09:43;102136.00;;;14.70
21336;BMP180;69435;52.670;13.544;2023-05-27T05:12:30;102132.00;;;14.80
21336;BMP180;69435;52.670;13.544;2023-05-27T05:15:18;102169.00;;;15.00
21336;BMP180;69435;52.670;13.544;2023-05-27T05:18:04;102158.00;;;15.20
21336;BMP180;69435;52.670;13.544;2023-05-27T05:20:50;102162.00;;;15.30
21336;BMP180;69435;52.670;13.544;2023-05-27T05:23:36;102118.00;;;15.40
21336;BMP180;69435;52.670;13.544;2023-05-27T05:26:22;102138.00;;;15.60
21336;BMP180;69435;52.670;13.544;2023-05-27T05:29:09;102133.00;;;15.70
21336;BMP180;69435;52.670;13.544;2023-05-27T05:31:55;102162.00;;;15.90
21336;BMP180;69435;52.670;13.544;2023-05-27T05:34:41;102140.00;;;16.00
21336;BMP180;69435;52.670;13.544;2023-05-27T05:37:27;102140.00;;;16.20
21336;BMP180;69435;52.670;13.544;2023-05-27T05:40:13;102134.00;;;16.30
21336;BMP180;69435;52.670;13.544;2023-05-27T05:42:59;102153.00;;;16.40
21336;BMP180;69435;52.670;13.544;2023-05-27T05:45:44;102163.00;;;16.60
21336;BMP180;69435;52.670;13.544;2023-05-27T05:48:30;102122.00;;;16.70
21336;BMP180;69435;52.670;13.544;2023-05-27T05:51:17;102138.00;;;16.80
21336;BMP180;69435;52.670;13.544;2023-05-27T05:54:04;102139.00;;;17.00
21336;BMP180;69435;52.670;13.544;2023-05-27T05:56:52;102165.00;;;17.10
21336;BMP180;69435;52.670;13.544;2023-05-27T05:59:38;102105.00;;;17.20
21336;BMP180;69435;52.670;13.544;2023-05-27T06:02:24;102153.00;;;17.40
21336;BMP180;69435;52.670;13.544;2023-05-27T06:05:11;102148.00;;;17.50
21336;BMP180;69435;52.670;13.544;2023-05-27T06:07:59;102136.00;;;17.60
21336;BMP180;69435;52.670;13.544;2023-05-27T06:10:48;102147.00;;;17.70
21336;BMP180;69435;52.670;13.544;2023-05-27T06:13:34;102135.00;;;17.70
21336;BMP180;69435;52.670;13.544;2023-05-27T06:16:20;102171.00;;;17.80
21336;BMP180;69435;52.670;13.544;2023-05-27T06:19:07;102191.00;;;18.00
21336;BMP180;69435;52.670;13.544;2023-05-27T06:21:53;102142.00;;;18.10
21336;BMP180;69435;52.670;13.544;2023-05-27T06:24:39;102163.00;;;18.20
21336;BMP180;69435;52.670;13.544;2023-05-27T06:27:25;102179.00;;;18.20
21336;BMP180;69435;52.670;13.544;2023-05-27T06:30:11;102171.00;;;18.30
21336;BMP180;69435;52.670;13.544;2023-05-27T06:32:58;102176.00;;;18.50
21336;BMP180;69435;52.670;13.544;2023-05-27T06:35:45;102146.00;;;18.60
21336;BMP180;69435;52.670;13.544;2023-05-27T06:38:31;102188.00;;;18.70
21336;BMP180;69435;52.670;13.544;2023-05-27T06:41:17;102158.00;;;18.80
21336;BMP180;69435;52.670;13.544;2023-05-27T06:44:04;102187.00;;;19.00
21336;BMP180;69435;52.670;13.544;2023-05-27T06:46:51;102154.00;;;19.10
21336;BMP180;69435;52.670;13.544;2023-05-27T06:49:37;102156.00;;;19.20
21336;BMP180;69435;52.670;13.544;2023-05-27T06:52:23;102206.00;;;19.30
21336;BMP180;69435;52.670;13.544;2023-05-27T06:55:11;102164.00;;;19.40
21336;BMP180;69435;52.670;13.544;2023-05-27T06:57:57;102188.00;;;19.50
21336;BMP180;69435;52.670;13.544;2023-05-27T07:00:43;102156.00;;;19.60
21336;BMP180;69435;52.670;13.544;2023-05-27T07:03:29;102191.00;;;19.80
21336;BMP180;69435;52.670;13.544;2023-05-27T07:06:15;102172.00;;;20.00
21336;BMP180;69435;52.670;13.544;2023-05-27T07:09:03;102152.00;;;20.30
21336;BMP180;69435;52.670;13.544;2023-05-27T07:11:49;102192.00;;;20.80
21336;BMP180;69435;52.670;13.544;2023-05-27T07:14:35;102167.00;;;21.70
21336;BMP180;69435;52.670;13.544;2023-05-27T07:17:21;102167.00;;;22.70
21336;BMP180;69435;52.670;13.544;2023-05-27T07:20:08;102148.00;;;23.80
21336;BMP180;69435;52.670;13.544;2023-05-27T07:22:55;102183.00;;;24.80
21336;BMP180;69435;52.670;13.544;2023-05-27T07:25:49;102171.00;;;26.00
21336;BMP180;69435;52.670;13.544;2023-05-27T07:28:35;102166.00;;;27.10
21336;BMP180;69435;52.670;13.544;2023-05-27T07:31:23;102175.00;;;28.10
21336;BMP180;69435;52.670;13.544;2023-05-27T07:34:09;102151.00;;;28.90
21336;BMP180;69435;52.670;13.544;2023-05-27T07:36:55;102164.00;;;29.60
21336;BMP180;69435;52.670;13.544;2023-05-27T07:39:41;102128.00;;;30.30
21336;BMP180;69435;52.670;13.544;2023-05-27T07:42:27;102156.00;;;30.70
21336;BMP180;69435;52.670;13.544;2023-05-27T07:45:13;102171.00;;;31.20
21336;BMP180;69435;52.670;13.544;2023-05-27T07:47:59;102154.00;;;31.70
21336;BMP180;69435;52.670;13.544;2023-05-27T07:50:46;102132.00;;;32.20
21336;BMP180;69435;52.670;13.544;2023-05-27T07:53:33;102142.00;;;32.50
21336;BMP180;69435;52.670;13.544;2023-05-27T07:56:20;102139.00;;;32.60
21336;BMP180;69435;52.670;13.544;2023-05-27T07:59:06;102141.00;;;32.80
21336;BMP180;69435;52.670;13.544;2023-05-27T08:01:52;102138.00;;;33.30
21336;BMP180;69435;52.670;13.544;2023-05-27T08:04:43;102149.00;;;33.60
21336;BMP180;69435;52.670;13.544;2023-05-27T08:07:31;102128.00;;;33.70
21336;BMP180;69435;52.670;13.544;2023-05-27T08:10:17;102153.00;;;33.80
21336;BMP180;69435;52.670;13.544;2023-05-27T08:13:05;102134.00;;;33.90
21336;BMP180;69435;52.670;13.544;2023-05-27T08:15:51;102116.00;;;34.10
21336;BMP180;69435;52.670;13.544;2023-05-27T08:18:37;102126.00;;;34.30
21336;BMP180;69435;52.670;13.544;2023-05-27T08:21:23;102128.00;;;34.40
21336;BMP180;69435;52.670;13.544;2023-05-27T08:24:09;102146.00;;;34.40
21336;BMP180;69435;52.670;13.544;2023-05-27T08:26:56;102121.00;;;34.60
21336;BMP180;69435;52.670;13.544;2023-05-27T08:29:44;102115.00;;;35.00
21336;BMP180;69435;52.670;13.544;2023-05-27T08:32:30;102120.00;;;35.50
21336;BMP180;69435;52.670;13.544;2023-05-27T08:35:16;102122.00;;;35.60
21336;BMP180;69435;52.670;13.544;2023-05-27T08:38:02;102126.00;;;35.70
21336;BMP180;69435;52.670;13.544;2023-05-27T08:40:49;102143.00;;;35.80
21336;BMP180;69435;52.670;13.544;2023-05-27T08:43:35;102121.00;;;36.00
21336;BMP180;69435;52.670;13.544;2023-05-27T08:46:26;102140.00;;;36.40
21336;BMP180;69435;52.670;13.544;2023-05-27T08:49:12;102097.00;;;36.70
21336;BMP180;69435;52.670;13.544;2023-05-27T08:52:01;102131.00;;;36.80
21336;BMP180;69435;52.670;13.544;2023-05-27T08:54:48;102110.00;;;36.90
21336;BMP180;69435;52.670;13.544;2023-05-27T08:57:36;102097.00;;;37.10
21336;BMP180;69435;52.670;13.544;2023-05-27T09:00:24;102133.00;;;37.30
21336;BMP180;69435;52.670;13.544;2023-05-27T09:03:11;102107.00;;;37.50
21336;BMP180;69435;52.670;13.544;2023-05-27T09:05:57;102110.00;;;37.40
21336;BMP180;69435;52.670;13.544;2023-05-27T09:08:44;102093.00;;;37.20
21336;BMP180;69435;52.670;13.544;2023-05-27T09:11:30;102115.00;;;37.10
21336;BMP180;69435;52.670;13.544;2023-05-27T09:14:21;102122.00;;;36.90
21336;BMP180;69435;52.670;13.544;2023-05-27T09:17:08;102118.00;;;36.80
21336;BMP180;69435;52.670;13.544;2023-05-27T09:19:54;102112.00;;;36.70
21336;BMP180;69435;52.670;13.544;2023-05-27T09:22:42;102116.00;;;36.60
21336;BMP180;69435;52.670;13.544;2023-05-27T09:25:28;102116.00;;;36.60
21336;BMP180;69435;52.670;13.544;2023-05-27T09:28:25;102130.00;;;36.80
21336;BMP180;69435;52.670;13.544;2023-05-27T09:31:12;102120.00;;;36.90
21336;BMP180;69435;52.670;13.544;2023-05-27T09:34:13;102116.00;;;37.00
21336;BMP180;69435;52.670;13.544;2023-05-27T09:36:59;102119.00;;;37.00
21336;BMP180;69435;52.670;13.544;2023-05-27T09:39:47;102117.00;;;37.00
21336;BMP180;69435;52.670;13.544;2023-05-27T09:42:48;102115.00;;;36.90
21336;BMP180;69435;52.670;13.544;2023-05-27T09:45:35;102110.00;;;36.70
21336;BMP180;69435;52.670;13.544;2023-05-27T09:48:23;102120.00;;;36.80
21336;BMP180;69435;52.670;13.544;2023-05-27T09:51:11;102115.00;;;37.00
21336;BMP180;69435;52.670;13.544;2023-05-27T09:54:01;102128.00;;;37.00
21336;BMP180;69435;52.670;13.544;2023-05-27T09:56:49;102119.00;;;37.00
21336;BMP180;69435;52.670;13.544;2023-05-27T09:59:35;102095.00;;;37.00
21336;BMP180;69435;52.670;13.544;2023-05-27T10:02:23;102096.00;;;37.10
21336;BMP180;69435;52.670;13.544;2023-05-27T10:05:12;102090.00;;;36.90
21336;BMP180;69435;52.670;13.544;2023-05-27T10:07:59;102102.00;;;36.60
21336;BMP180;69435;52.670;13.544;2023-05-27T10:10:46;102092.00;;;36.30
21336;BMP180;69435;52.670;13.544;2023-05-27T10:13:33;102094.00;;;36.00
21336;BMP180;69435;52.670;13.544;2023-05-27T10:16:22;102083.00;;;35.70
21336;BMP180;69435;52.670;13.544;2023-05-27T10:19:12;102068.00;;;35.50
21336;BMP180;69435;52.670;13.544;2023-05-27T10:22:10;102088.00;;;35.30
21336;BMP180;69435;52.670;13.544;2023-05-27T10:25:11;102085.00;;;35.20
21336;BMP180;69435;52.670;13.544;2023-05-27T10:27:57;102082.00;;;35.10
21336;BMP180;69435;52.670;13.544;2023-05-27T10:30:45;102081.00;;;35.30
21336;BMP180;69435;52.670;13.544;2023-05-27T10:33:39;102066.00;;;35.60
21336;BMP180;69435;52.670;13.544;2023-05-27T10:36:27;102069.00;;;35.90
21336;BMP180;69435;52.670;13.544;2023-05-27T10:39:18;102062.00;;;36.30
21336;BMP180;69435;52.670;13.544;2023-05-27T10:42:05;102054.00;;;36.60
21336;BMP180;69435;52.670;13.544;2023-05-27T10:45:09;102064.00;;;36.60
21336;BMP180;69435;52.670;13.544;2023-05-27T10:47:57;102056.00;;;36.40
21336;BMP180;69435;52.670;13.544;2023-05-27T10:50:50;102064.00;;;36.20
21336;BMP180;69435;52.670;13.544;2023-05-27T10:53:37;102059.00;;;36.00
21336;BMP180;69435;52.670;13.544;2023-05-27T10:56:25;102056.00;;;35.70
21336;BMP180;69435;52.670;13.544;2023-05-27T10:59:20;102038.00;;;35.50
21336;BMP180;69435;52.670;13.544;2023-05-27T11:02:11;102056.00;;;35.20
21336;BMP180;69435;52.670;13.544;2023-05-27T11:04:58;102037.00;;;35.00
21336;BMP180;69435;52.670;13.544;2023-05-27T11:07:44;102040.00;;;34.70
21336;BMP180;69435;52.670;13.544;2023-05-27T11:10:30;102037.00;;;34.50
21336;BMP180;69435;52.670;13.544;2023-05-27T11:13:16;102040.00;;;34.30
21336;BMP180;69435;52.670;13.544;2023-05-27T11:16:05;102032.00;;;34.10
21336;BMP180;69435;52.670;13.544;2023-05-27T11:18:51;102021.00;;;33.90
21336;BMP180;69435;52.670;13.544;2023-05-27T11:21:52;102026.00;;;34.00
21336;BMP180;69435;52.670;13.544;2023-05-27T11:24:39;102021.00;;;33.90
21336;BMP180;69435;52.670;13.544;2023-05-27T11:27:38;102027.00;;;33.90
21336;BMP180;69435;52.670;13.544;2023-05-27T11:30:25;102022.00;;;33.80
21336;BMP180;69435;52.670;13.544;2023-05-27T11:33:12;102003.00;;;33.80
21336;BMP180;69435;52.670;13.544;2023-05-27T11:36:06;102019.00;;;33.80
21336;BMP180;69435;52.670;13.544;2023-05-27T11:39:00;102008.00;;;33.70
21336;BMP180;69435;52.670;13.544;2023-05-27T11:41:54;101989.00;;;33.50
21336;BMP180;69435;52.670;13.544;2023-05-27T11:44:53;102007.00;;;33.50
21336;BMP180;69435;52.670;13.544;2023-05-27T11:47:44;101985.00;;;33.40
21336;BMP180;69435;52.670;13.544;2023-05-27T11:50:30;102008.00;;;33.40
21336;BMP180;69435;52.670;13.544;2023-05-27T11:53:16;102007.00;;;33.10
21336;BMP180;69435;52.670;13.544;2023-05-27T11:56:02;101992.00;;;32.70
21336;BMP180;69435;52.670;13.544;2023-05-27T11:58:47;101986.00;;;32.50
21336;BMP180;69435;52.670;13.544;2023-05-27T12:01:34;102000.00;;;32.20
21336;BMP180;69435;52.670;13.544;2023-05-27T12:04:20;101959.00;;;32.00
21336;BMP180;69435;52.670;13.544;2023-05-27T12:07:06;101977.00;;;32.00
21336;BMP180;69435;52.670;13.544;2023-05-27T12:09:54;101972.00;;;32.00
21336;BMP180;69435;52.670;13.544;2023-05-27T12:12:40;101947.00;;;31.90
21336;BMP180;69435;52.670;13.544;2023-05-27T12:15:31;101952.00;;;31.80
21336;BMP180;69435;52.670;13.544;2023-05-27T12:18:17;101973.00;;;31.80
21336;BMP180;69435;52.670;13.544;2023-05-27T12:21:04;101957.00;;;31.70
21336;BMP180;69435;52.670;13.544;2023-05-27T12:23:50;101976.00;;;31.60
21336;BMP180;69435;52.670;13.544;2023-05-27T12:26:36;101934.00;;;31.50
21336;BMP180;69435;52.670;13.544;2023-05-27T12:29:23;101943.00;;;31.50
21336;BMP180;69435;52.670;13.544;2023-05-27T12:32:10;101931.00;;;31.50
21336;BMP180;69435;52.670;13.544;2023-05-27T12:34:56;101933.00;;;31.40
21336;BMP180;69435;52.670;13.544;2023-05-27T12:37:42;101936.00;;;31.40
21336;BMP180;69435;52.670;13.544;2023-05-27T12:40:28;101926.00;;;31.40
21336;BMP180;69435;52.670;13.544;2023-05-27T12:43:15;101947.00;;;31.20
21336;BMP180;69435;52.670;13.544;2023-05-27T12:46:01;101905.00;;;31.20
21336;BMP180;69435;52.670;13.544;2023-05-27T12:48:47;101904.00;;;31.10
21336;BMP180;69435;52.670;13.544;2023-05-27T12:51:33;101940.00;;;31.10
21336;BMP180;69435;52.670;13.544;2023-05-27T12:54:19;101933.00;;;31.20
21336;BMP180;69435;52.670;13.544;2023-05-27T12:57:05;101906.00;;;31.20
21336;BMP180;69435;52.670;13.544;2023-05-27T12:59:51;101898.00;;;31.20
21336;BMP180;69435;52.670;13.544;2023-05-27T13:02:38;101902.00;;;31.20
21336;BMP180;69435;52.670;13.544;2023-05-27T13:05:24;101897.00;;;31.20
21336;BMP180;69435;52.670;13.544;2023-05-27T13:08:11;101898.00;;;31.10
21336;BMP180;69435;52.670;13.544;2023-05-27T13:10:57;101891.00;;;31.20
21336;BMP180;69435;52.670;13.544;2023-05-27T13:13:44;101897.00;;;31.20
21336;BMP180;69435;52.670;13.544;2023-05-27T13:16:30;101906.00;;;31.30
21336;BMP180;69435;52.670;13.544;2023-05-27T13:19:18;101888.00;;;31.30
21336;BMP180;69435;52.670;13.544;2023-05-27T13:22:04;101879.00;;;31.20
21336;BMP180;69435;52.670;13.544;2023-05-27T13:24:50;101864.00;;;31.10
21336;BMP180;69435;52.670;13.544;2023-05-27T13:27:42;101903.00;;;31.00
21336;BMP180;69435;52.670;13.544;2023-05-27T13:30:30;101851.00;;;30.90
21336;BMP180;69435;52.670;13.544;2023-05-27T13:33:16;101869.00;;;30.80
21336;BMP180;69435;52.670;13.544;2023-05-27T13:36:02;101864.00;;;30.80
21336;BMP180;69435;52.670;13.544;2023-05-27T13:38:48;101872.00;;;30.80
21336;BMP180;69435;52.670;13.544;2023-05-27T13:41:34;101865.00;;;30.90
21336;BMP180;69435;52.670;13.544;2023-05-27T13:44:20;101877.00;;;30.90
21336;BMP180;69435;52.670;13.544;2023-05-27T13:47:07;101872.00;;;31.00
21336;BMP180;69435;52.670;13.544;2023-05-27T13:49:53;101855.00;;;31.00
21336;BMP180;69435;52.670;13.544;2023-05-27T13:52:39;101864.00;;;30.90
21336;BMP180;69435;52.670;13.544;2023-05-27T13:55:26;101846.00;;;30.60
21336;BMP180;69435;52.670;13.544;2023-05-27T13:58:12;101865.00;;;30.30
21336;BMP180;69435;52.670;13.544;2023-05-27T14:00:58;101876.00;;;30.00
21336;BMP180;69435;52.670;13.544;2023-05-27T14:03:44;101863.00;;;29.70
21336;BMP180;69435;52.670;13.544;2023-05-27T14:06:30;101850.00;;;29.60
21336;BMP180;69435;52.670;13.544;2023-05-27T14:09:17;101841.00;;;29.50
21336;BMP180;69435;52.670;13.544;2023-05-27T14:12:03;101839.00;;;29.50
21336;BMP180;69435;52.670;13.544;2023-05-27T14:14:49;101835.00;;;29.60
21336;BMP180;69435;52.670;13.544;2023-05-27T14:17:35;101837.00;;;29.60
21336;BMP180;69435;52.670;13.544;2023-05-27T14:20:21;101822.00;;;29.60
21336;BMP180;69435;52.670;13.544;2023-05-27T14:23:08;101818.00;;;29.50
21336;BMP180;69435;52.670;13.544;2023-05-27T14:25:57;101823.00;;;29.40
21336;BMP180;69435;52.670;13.544;2023-05-27T14:28:43;101818.00;;;29.30
21336;BMP180;69435;52.670;13.544;2023-05-27T14:31:30;101817.00;;;29.20
21336;BMP180;69435;52.670;13.544;2023-05-27T14:34:16;101833.00;;;29.10
21336;BMP180;69435;52.670;13.544;2023-05-27T14:37:02;101792.00;;;29.10
21336;BMP180;69435;52.670;13.544;2023-05-27T14:39:51;101814.00;;;29.10
21336;BMP180;69435;52.670;13.544;2023-05-27T14:42:38;101779.00;;;29.00
21336;BMP180;69435;52.670;13.544;2023-05-27T14:45:24;101808.00;;;28.80
21336;BMP180;69435;52.670;13.544;2023-05-27T14:48:10;101815.00;;;28.50
21336;BMP180;69435;52.670;13.544;2023-05-27T14:50:57;101784.00;;;28.20
21336;BMP180;69435;52.670;13.544;2023-05-27T14:53:43;101823.00;;;28.00
21336;BMP180;69435;52.670;13.544;2023-05-27T14:56:29;101802.00;;;27.80
21336;BMP180;69435;52.670;13.544;2023-05-27T14:59:15;101780.00;;;27.70
21336;BMP180;69435;52.670;13.544;2023-05-27T15:02:02;101807.00;;;27.50
21336;BMP180;69435;52.670;13.544;2023-05-27T15:04:48;101800.00;;;27.40
21336;BMP180;69435;52.670;13.544;2023-05-27T15:07:36;101784.00;;;27.30
21336;BMP180;69435;52.670;13.544;2023-05-27T15:10:23;101784.00;;;27.10
21336;BMP180;69435;52.670;13.544;2023-05-27T15:13:09;101775.00;;;26.90
21336;BMP180;69435;52.670;13.544;2023-05-27T15:15:58;101769.00;;;26.80
21336;BMP180;69435;52.670;13.544;2023-05-27T15:18:44;101791.00;;;26.50
21336;BMP180;69435;52.670;13.544;2023-05-27T15:21:30;101746.00;;;26.30
21336;BMP180;69435;52.670;13.544;2023-05-27T15:24:17;101775.00;;;26.20
21336;BMP180;69435;52.670;13.544;2023-05-27T15:27:03;101752.00;;;26.10
21336;BMP180;69435;52.670;13.544;2023-05-27T15:29:49;101779.00;;;26.10
21336;BMP180;69435;52.670;13.544;2023-05-27T15:32:35;101780.00;;;26.00
21336;BMP180;69435;52.670;13.544;2023-05-27T15:35:22;101743.00;;;26.00
21336;BMP180;69435;52.670;13.544;2023-05-27T15:38:08;101766.00;;;25.90
21336;BMP180;69435;52.670;13.544;2023-05-27T15:40:58;101745.00;;;25.90